Corky — WDC3366 — position and weather

sailwx.info

Track history (hours):
 
Tides and Currents Weather Stations Pressure Air Temp Water Temp Dewpoint Dewpoint Depression Visibility Wind Speed Wind Dir Waves Ship Positions

Corky

Owner: Gulf South Marine Transportation, Inc., New Orleans, LA. More information available from US FCC via Universal Licensing System and Coast Guard Vessel Documentation Center.

Last reported at 2015-Mar-30 06:19 UTC. Time now 2015-Mar-31 15:30 UTC.
Position N 30°03' W 089°50'.

Length 18 m; draft 3.3 m.

Type: Tow > 200 m length. MMSI: 367006780.

Date/timePositionNaut miles runAvg speedWind from/ knotsBaromVisibWave heightAir tempDewpointWater temp
2015-Mar-30 06:19N 30°03' W 089°50'4 5.1
2015-Mar-30 05:29N 30°01' W 089°54'7 0.3
2015-Mar-29 09:25N 29°56' W 089°60'0 0.0
2015-Mar-29 05:18N 29°56' W 089°60'0 0.0
2015-Mar-29 04:33N 29°56' W 089°60'0 0.0
2015-Mar-29 02:32N 29°56' W 089°60'0 0.0
2015-Mar-29 01:31N 29°56' W 089°60'0 0.0
2015-Mar-29 00:22N 29°56' W 089°60'0 0.0
2015-Mar-28 23:30N 29°56' W 089°60'0 0.0
2015-Mar-28 22:29N 29°56' W 089°60'0 0.0
2015-Mar-28 21:26N 29°56' W 089°60'0 0.0
2015-Mar-28 20:32N 29°56' W 089°60'0 0.0
2015-Mar-28 19:31N 29°56' W 089°60'0 0.0
2015-Mar-28 18:26N 29°56' W 089°60'0 0.0
2015-Mar-28 17:30N 29°56' W 089°60'0 0.0
2015-Mar-28 16:27N 29°56' W 089°60'1 0.9
2015-Mar-28 15:28N 29°57' W 090°01'0 0.3
2015-Mar-28 14:33N 29°57' W 090°00'7 6.5
2015-Mar-28 13:28N 29°55' W 090°08'11 0.3
2015-Mar-27 03:31N 30°00' W 089°58'3 3.1
2015-Mar-27 02:32N 29°59' W 090°01'6 5.3
2015-Mar-27 01:26N 30°01' W 089°54'  
2015-Mar-23 09:30N 30°02' W 089°51'5 4.9
2015-Mar-23 08:32N 30°00' W 089°57'3 3.0
2015-Mar-23 07:32N 29°60' W 090°00'0 0.0
2015-Mar-23 06:33N 29°60' W 090°00'0 0.0
2015-Mar-23 05:32N 29°60' W 090°00'1 0.9
2015-Mar-23 04:33N 29°59' W 090°01'2 1.6
2015-Mar-23 03:28N 29°58' W 090°02'0 0.5
2015-Mar-23 02:28N 29°57' W 090°01'0 0.2
2015-Mar-23 01:33N 29°57' W 090°01'1 1.1
2015-Mar-23 00:30N 29°56' W 090°00'1 0.9
2015-Mar-22 23:30N 29°56' W 089°59'0 0.0
2015-Mar-22 03:27N 29°56' W 089°60'0 0.0
2015-Mar-22 02:11N 29°56' W 089°60'3 0.6
2015-Mar-21 20:24N 29°55' W 089°56'6 7.5
2015-Mar-21 19:33N 29°58' W 090°03'5 4.8
2015-Mar-21 18:32N 29°54' W 090°07'0 0.0
2015-Mar-21 17:26N 29°54' W 090°07'0 0.0
2015-Mar-21 16:33N 29°54' W 090°07'0 0.0
2015-Mar-21 15:30N 29°54' W 090°07'0 0.0
2015-Mar-21 14:31N 29°54' W 090°07'1 0.6
2015-Mar-21 13:33N 29°55' W 090°07'  
Track history (hours):
 
Tides and Currents Weather Stations Pressure Air Temp Water Temp Dewpoint Dewpoint Depression Visibility Wind Speed Wind Dir Waves Ship Positions

Corky

Owner: Gulf South Marine Transportation, Inc., New Orleans, LA. More information available from US FCC via Universal Licensing System and Coast Guard Vessel Documentation Center.

Last reported at 2015-Mar-30 06:19 UTC. Time now 2015-Mar-31 15:30 UTC.
Position N 30°03' W 089°50'.

Length 18 m; draft 3.3 m.

Type: Tow > 200 m length. MMSI: 367006780.

Date/timePositionNaut miles runAvg speedWind from/ knotsBaromVisibWave heightAir tempDewpointWater temp
2015-Mar-30 06:19N 30°03' W 089°50'4 5.1
2015-Mar-30 05:29N 30°01' W 089°54'7 0.3
2015-Mar-29 09:25N 29°56' W 089°60'0 0.0
2015-Mar-29 05:18N 29°56' W 089°60'0 0.0
2015-Mar-29 04:33N 29°56' W 089°60'0 0.0
2015-Mar-29 02:32N 29°56' W 089°60'0 0.0
2015-Mar-29 01:31N 29°56' W 089°60'0 0.0
2015-Mar-29 00:22N 29°56' W 089°60'0 0.0
2015-Mar-28 23:30N 29°56' W 089°60'0 0.0
2015-Mar-28 22:29N 29°56' W 089°60'0 0.0
2015-Mar-28 21:26N 29°56' W 089°60'0 0.0
2015-Mar-28 20:32N 29°56' W 089°60'0 0.0
2015-Mar-28 19:31N 29°56' W 089°60'0 0.0
2015-Mar-28 18:26N 29°56' W 089°60'0 0.0
2015-Mar-28 17:30N 29°56' W 089°60'0 0.0
2015-Mar-28 16:27N 29°56' W 089°60'1 0.9
2015-Mar-28 15:28N 29°57' W 090°01'0 0.3
2015-Mar-28 14:33N 29°57' W 090°00'7 6.5
2015-Mar-28 13:28N 29°55' W 090°08'11 0.3
2015-Mar-27 03:31N 30°00' W 089°58'3 3.1
2015-Mar-27 02:32N 29°59' W 090°01'6 5.3
2015-Mar-27 01:26N 30°01' W 089°54'  
2015-Mar-23 09:30N 30°02' W 089°51'5 4.9
2015-Mar-23 08:32N 30°00' W 089°57'3 3.0
2015-Mar-23 07:32N 29°60' W 090°00'0 0.0
2015-Mar-23 06:33N 29°60' W 090°00'0 0.0
2015-Mar-23 05:32N 29°60' W 090°00'1 0.9
2015-Mar-23 04:33N 29°59' W 090°01'2 1.6
2015-Mar-23 03:28N 29°58' W 090°02'0 0.5
2015-Mar-23 02:28N 29°57' W 090°01'0 0.2
2015-Mar-23 01:33N 29°57' W 090°01'1 1.1
2015-Mar-23 00:30N 29°56' W 090°00'1 0.9
2015-Mar-22 23:30N 29°56' W 089°59'0 0.0
2015-Mar-22 03:27N 29°56' W 089°60'0 0.0
2015-Mar-22 02:11N 29°56' W 089°60'3 0.6
2015-Mar-21 20:24N 29°55' W 089°56'6 7.5
2015-Mar-21 19:33N 29°58' W 090°03'5 4.8
2015-Mar-21 18:32N 29°54' W 090°07'0 0.0
2015-Mar-21 17:26N 29°54' W 090°07'0 0.0
2015-Mar-21 16:33N 29°54' W 090°07'0 0.0
2015-Mar-21 15:30N 29°54' W 090°07'0 0.0
2015-Mar-21 14:31N 29°54' W 090°07'1 0.6
2015-Mar-21 13:33N 29°55' W 090°07'  

Dump ship's entire track history